createdAt,value
2018-01-27T00:00:31.270Z,0
2018-01-27T00:01:11.880Z,0
2018-01-27T00:01:52.923Z,0
2018-01-27T00:02:33.820Z,0
2018-01-27T00:03:14.343Z,0
2018-01-27T00:03:54.978Z,0
2018-01-27T00:04:35.489Z,0
2018-01-27T00:05:15.986Z,0
2018-01-27T00:05:56.572Z,0
2018-01-27T00:06:37.488Z,0
2018-01-27T00:07:18.012Z,0
2018-01-27T00:07:58.695Z,0
2018-01-27T00:08:39.152Z,0
2018-01-27T00:09:19.692Z,0
2018-01-27T00:10:00.309Z,0
2018-01-27T00:10:40.813Z,0
2018-01-27T00:11:21.333Z,0
2018-01-27T00:12:02.373Z,0
2018-01-27T00:12:42.923Z,0
2018-01-27T00:13:23.503Z,0
2018-01-27T00:14:04.037Z,0
2018-01-27T00:14:44.599Z,0
2018-01-27T00:15:25.109Z,0
2018-01-27T00:16:05.660Z,0
2018-01-27T00:16:46.205Z,0
2018-01-27T00:17:27.039Z,0
2018-01-27T00:18:07.979Z,0
2018-01-27T00:18:48.505Z,0
2018-01-27T00:19:29.017Z,0
2018-01-27T00:20:09.559Z,0
2018-01-27T00:20:50.076Z,0
2018-01-27T00:21:30.630Z,0
2018-01-27T00:22:11.179Z,0
2018-01-27T00:22:51.699Z,0
2018-01-27T00:23:32.454Z,0
2018-01-27T00:24:12.992Z,0
2018-01-27T00:24:53.518Z,0
2018-01-27T00:25:34.083Z,0
2018-01-27T00:26:14.600Z,0
2018-01-27T00:26:55.138Z,0
2018-01-27T00:27:35.711Z,0
2018-01-27T00:28:16.277Z,0
2018-01-27T00:28:57.323Z,0
2018-01-27T00:29:37.673Z,0
2018-01-27T00:30:18.193Z,0
2018-01-27T00:30:58.760Z,0
2018-01-27T00:31:39.319Z,0
2018-01-27T00:32:19.899Z,0
2018-01-27T00:33:00.434Z,0
2018-01-27T00:33:40.931Z,0
2018-01-27T00:34:21.457Z,0
2018-01-27T00:35:02.432Z,0
2018-01-27T00:35:43.056Z,0
2018-01-27T00:36:23.620Z,0
2018-01-27T00:37:04.172Z,0
2018-01-27T00:37:44.692Z,0
2018-01-27T00:38:25.235Z,0
2018-01-27T00:39:05.834Z,0
2018-01-27T00:39:46.334Z,0
2018-01-27T00:40:27.150Z,0
2018-01-27T00:41:08.574Z,0
2018-01-27T00:41:49.137Z,0
2018-01-27T00:42:29.706Z,0
2018-01-27T00:43:10.251Z,0
2018-01-27T00:43:50.774Z,0
2018-01-27T00:44:31.348Z,0
2018-01-27T00:45:11.917Z,0
2018-01-27T00:45:52.475Z,0
2018-01-27T00:46:33.025Z,0
2018-01-27T00:47:13.540Z,0
2018-01-27T00:47:54.096Z,0
2018-01-27T00:48:34.620Z,0
2018-01-27T00:49:15.170Z,0
2018-01-27T00:49:56.037Z,0
2018-01-27T00:50:36.932Z,0
2018-01-27T00:51:17.432Z,0
2018-01-27T00:51:58.002Z,0
2018-01-27T00:52:38.554Z,0
2018-01-27T00:53:19.100Z,0
2018-01-27T00:53:59.639Z,0
2018-01-27T00:54:40.213Z,0
2018-01-27T00:55:22.025Z,0
2018-01-27T00:56:02.881Z,0
2018-01-27T00:56:43.413Z,0
2018-01-27T00:57:23.938Z,0
2018-01-27T00:58:04.483Z,0
2018-01-27T00:58:45.119Z,0
2018-01-27T00:59:25.598Z,0
2018-01-27T01:00:06.150Z,0
2018-01-27T01:00:47.161Z,0
2018-01-27T01:01:27.709Z,0
2018-01-27T01:02:08.228Z,0
2018-01-27T01:02:48.795Z,0
2018-01-27T01:03:29.297Z,0
2018-01-27T01:04:09.811Z,0
2018-01-27T01:04:51.029Z,0
2018-01-27T01:05:32.004Z,0
2018-01-27T01:06:12.608Z,0
2018-01-27T01:06:53.395Z,0
2018-01-27T01:07:33.968Z,0
2018-01-27T01:08:14.475Z,0
2018-01-27T01:08:54.997Z,0
2018-01-27T01:09:35.997Z,0
2018-01-27T01:10:16.959Z,0
2018-01-27T01:10:57.527Z,0
2018-01-27T01:11:38.056Z,0
2018-01-27T01:12:18.578Z,0
2018-01-27T01:12:59.131Z,0
2018-01-27T01:13:39.656Z,0
2018-01-27T01:14:20.213Z,0
2018-01-27T01:15:01.766Z,0
2018-01-27T01:15:41.801Z,0
2018-01-27T01:16:22.253Z,0
2018-01-27T01:17:02.856Z,0
2018-01-27T01:17:43.397Z,0
2018-01-27T01:18:23.942Z,0
2018-01-27T01:19:04.520Z,0
2018-01-27T01:19:45.067Z,0
2018-01-27T01:20:25.587Z,0
2018-01-27T01:21:06.651Z,0
2018-01-27T01:21:47.564Z,0
2018-01-27T01:22:28.098Z,0
2018-01-27T01:23:08.620Z,0
2018-01-27T01:23:49.513Z,0
2018-01-27T01:24:30.052Z,0
2018-01-27T01:25:10.714Z,0
2018-01-27T01:25:51.772Z,0
2018-01-27T01:26:32.323Z,0
2018-01-27T01:27:12.889Z,0
2018-01-27T01:27:53.402Z,0
2018-01-27T01:28:33.977Z,0
2018-01-27T01:29:14.537Z,0
2018-01-27T01:29:55.062Z,0
2018-01-27T01:30:35.615Z,0
2018-01-27T01:31:16.400Z,0
2018-01-27T01:31:57.093Z,0
2018-01-27T01:32:37.664Z,0
2018-01-27T01:33:18.213Z,0
2018-01-27T01:33:58.748Z,0
2018-01-27T01:34:39.281Z,0
2018-01-27T01:35:19.860Z,0
2018-01-27T01:36:00.385Z,0
2018-01-27T01:36:40.935Z,0
2018-01-27T01:37:21.484Z,0
2018-01-27T01:38:02.732Z,0
2018-01-27T01:38:42.914Z,0
2018-01-27T01:39:23.453Z,0
2018-01-27T01:40:04.181Z,0
2018-01-27T01:40:44.928Z,0
2018-01-27T01:41:25.730Z,0
2018-01-27T01:42:06.300Z,0
2018-01-27T01:42:46.861Z,0
2018-01-27T01:43:27.410Z,0
2018-01-27T01:44:07.935Z,0
2018-01-27T01:44:48.500Z,0
2018-01-27T01:45:29.831Z,0
2018-01-27T01:46:10.684Z,0
2018-01-27T01:46:51.232Z,0
2018-01-27T01:47:31.751Z,0
2018-01-27T01:48:12.284Z,0
2018-01-27T01:48:52.788Z,0
2018-01-27T01:49:33.334Z,0
2018-01-27T01:50:13.882Z,0
2018-01-27T01:50:54.797Z,0
2018-01-27T01:51:35.355Z,0
2018-01-27T01:52:15.940Z,0
2018-01-27T01:52:56.483Z,0
2018-01-27T01:53:37.019Z,0
2018-01-27T01:54:17.578Z,0
2018-01-27T01:54:58.108Z,0
2018-01-27T01:55:38.632Z,0
2018-01-27T01:56:20.378Z,0
2018-01-27T01:57:00.918Z,0
2018-01-27T01:57:41.470Z,0
2018-01-27T01:58:22.024Z,0
2018-01-27T01:59:02.564Z,0
2018-01-27T01:59:43.123Z,0
2018-01-27T02:00:23.682Z,0
2018-01-27T02:01:05.036Z,0
2018-01-27T02:01:45.594Z,0
2018-01-27T02:02:26.180Z,0
2018-01-27T02:03:06.718Z,0
2018-01-27T02:03:47.286Z,0
2018-01-27T02:04:27.810Z,0
2018-01-27T02:05:08.386Z,0
2018-01-27T02:05:48.928Z,0
2018-01-27T02:06:30.481Z,0
2018-01-27T02:07:12.099Z,0
2018-01-27T02:07:52.612Z,0
2018-01-27T02:08:33.111Z,0
2018-01-27T02:09:13.677Z,0
2018-01-27T02:09:54.264Z,0
2018-01-27T02:10:35.252Z,0
2018-01-27T02:11:15.800Z,0
2018-01-27T02:11:56.378Z,0
2018-01-27T02:12:36.927Z,0
2018-01-27T02:13:17.459Z,0
2018-01-27T02:13:58.004Z,0
2018-01-27T02:14:38.552Z,0
2018-01-27T02:15:19.241Z,0
2018-01-27T02:16:00.122Z,0
2018-01-27T02:16:40.706Z,0
2018-01-27T02:17:21.210Z,0
2018-01-27T02:18:01.756Z,0
2018-01-27T02:18:42.304Z,0
2018-01-27T02:19:22.875Z,0
2018-01-27T02:20:03.482Z,0
2018-01-27T02:20:43.963Z,0
2018-01-27T02:21:24.483Z,0
2018-01-27T02:22:05.022Z,0
2018-01-27T02:22:45.566Z,0
2018-01-27T02:23:26.120Z,0
2018-01-27T02:24:06.680Z,0
2018-01-27T02:24:47.197Z,0
2018-01-27T02:25:27.761Z,0
2018-01-27T02:26:08.349Z,0
2018-01-27T02:26:48.880Z,0
2018-01-27T02:27:29.436Z,0
2018-01-27T02:28:09.977Z,0
2018-01-27T02:28:50.495Z,0
2018-01-27T02:29:31.046Z,0
2018-01-27T02:30:11.588Z,0
2018-01-27T02:30:52.174Z,0
2018-01-27T02:31:32.727Z,0
2018-01-27T02:32:13.296Z,0
2018-01-27T02:32:53.780Z,0
2018-01-27T02:33:34.305Z,0
2018-01-27T02:34:14.920Z,0
2018-01-27T02:34:55.419Z,0
2018-01-27T02:35:35.939Z,0
2018-01-27T02:36:16.415Z,0
2018-01-27T02:36:56.980Z,0
2018-01-27T02:37:37.579Z,0
2018-01-27T02:38:18.131Z,0
2018-01-27T02:38:58.679Z,0
2018-01-27T02:39:39.249Z,0
2018-01-27T02:40:19.807Z,0
2018-01-27T02:41:00.318Z,0
2018-01-27T02:41:40.854Z,0
2018-01-27T02:42:21.386Z,0
2018-01-27T02:43:01.931Z,0
2018-01-27T02:43:42.459Z,0
2018-01-27T02:44:22.994Z,0
2018-01-27T02:45:03.594Z,0
2018-01-27T02:45:44.130Z,0
2018-01-27T02:46:24.673Z,0
2018-01-27T02:47:05.217Z,0
2018-01-27T02:47:45.737Z,0
2018-01-27T02:48:26.283Z,0
2018-01-27T02:49:06.844Z,0
2018-01-27T02:49:47.471Z,0
2018-01-27T02:50:28.036Z,0
2018-01-27T02:51:08.557Z,0
2018-01-27T02:51:49.089Z,0
2018-01-27T02:52:29.625Z,0
2018-01-27T02:53:10.173Z,0
2018-01-27T02:53:50.702Z,0
2018-01-27T02:54:31.239Z,0
2018-01-27T02:55:11.758Z,0
2018-01-27T02:55:52.320Z,0
2018-01-27T02:56:32.869Z,0
2018-01-27T02:57:13.421Z,0
2018-01-27T02:57:54.087Z,0
2018-01-27T02:58:34.643Z,0
2018-01-27T02:59:15.194Z,0
2018-01-27T02:59:55.742Z,0
2018-01-27T03:00:36.324Z,0
2018-01-27T03:01:16.871Z,0
2018-01-27T03:01:57.399Z,0
2018-01-27T03:02:37.933Z,0
2018-01-27T03:03:18.480Z,0
2018-01-27T03:03:59.021Z,0
2018-01-27T03:04:39.540Z,0
2018-01-27T03:05:20.099Z,0
2018-01-27T03:06:00.668Z,0
2018-01-27T03:06:41.209Z,0
2018-01-27T03:07:21.750Z,0
2018-01-27T03:08:02.326Z,0
2018-01-27T03:08:42.830Z,0
2018-01-27T03:09:23.495Z,0
2018-01-27T03:10:04.047Z,0
2018-01-27T03:10:44.574Z,0
2018-01-27T03:11:25.125Z,0
2018-01-27T03:12:05.664Z,0
2018-01-27T03:12:46.218Z,0
2018-01-27T03:13:26.755Z,0
2018-01-27T03:14:07.316Z,0
2018-01-27T03:14:47.869Z,0
2018-01-27T03:15:28.400Z,0
2018-01-27T03:16:08.973Z,0
2018-01-27T03:16:49.625Z,0
2018-01-27T03:17:30.150Z,0
2018-01-27T03:18:10.694Z,0
2018-01-27T03:18:51.226Z,0
2018-01-27T03:19:31.782Z,0
2018-01-27T03:20:12.372Z,0
2018-01-27T03:20:52.921Z,0
2018-01-27T03:21:33.480Z,0
2018-01-27T03:22:14.022Z,0
2018-01-27T03:22:54.600Z,0
2018-01-27T03:23:35.146Z,0
2018-01-27T03:24:15.712Z,0
2018-01-27T03:24:56.255Z,0
2018-01-27T03:25:36.790Z,0
2018-01-27T03:26:17.350Z,0
2018-01-27T03:26:57.884Z,0
2018-01-27T03:27:38.400Z,0
2018-01-27T03:28:18.981Z,0
2018-01-27T03:28:59.522Z,0
2018-01-27T03:29:40.092Z,0
2018-01-27T03:30:20.647Z,0
2018-01-27T03:31:01.162Z,0
2018-01-27T03:31:41.709Z,0
2018-01-27T03:32:22.252Z,0
2018-01-27T03:33:02.800Z,0
2018-01-27T03:33:43.360Z,0
2018-01-27T03:34:23.914Z,0
2018-01-27T03:35:04.455Z,0
2018-01-27T03:35:45.021Z,0
2018-01-27T03:36:25.539Z,0
2018-01-27T03:37:06.073Z,0
2018-01-27T03:37:46.618Z,0
2018-01-27T03:38:27.173Z,0
2018-01-27T03:39:07.730Z,0
2018-01-27T03:39:48.294Z,0
2018-01-27T03:40:28.832Z,0
2018-01-27T03:41:09.376Z,0
2018-01-27T03:41:49.937Z,0
2018-01-27T03:42:30.454Z,0
2018-01-27T03:43:10.999Z,0
2018-01-27T03:43:51.528Z,0
2018-01-27T03:44:32.075Z,0
2018-01-27T03:45:12.632Z,0
2018-01-27T03:45:53.178Z,0
2018-01-27T03:46:33.737Z,0
2018-01-27T03:47:14.274Z,0
2018-01-27T03:47:54.823Z,0
2018-01-27T03:48:35.366Z,0
2018-01-27T03:49:15.929Z,0
2018-01-27T03:49:56.484Z,0
2018-01-27T03:50:37.023Z,0
2018-01-27T03:51:17.551Z,0
2018-01-27T03:51:58.208Z,0
2018-01-27T03:52:38.687Z,0
2018-01-27T03:53:19.300Z,0
2018-01-27T03:53:59.790Z,0
2018-01-27T03:54:40.323Z,0
2018-01-27T03:55:20.907Z,0
2018-01-27T03:56:01.432Z,0
2018-01-27T03:56:41.976Z,0
2018-01-27T03:57:22.524Z,0
2018-01-27T03:58:03.065Z,0
2018-01-27T03:58:43.625Z,0
2018-01-27T03:59:24.207Z,0
2018-01-27T04:00:04.731Z,0
2018-01-27T04:00:45.232Z,0
2018-01-27T04:01:25.759Z,0
2018-01-27T04:02:06.298Z,0
2018-01-27T04:02:46.855Z,0
2018-01-27T04:03:27.381Z,0
2018-01-27T04:04:07.925Z,0
2018-01-27T04:04:48.461Z,0
2018-01-27T04:05:29.031Z,0
2018-01-27T04:06:09.597Z,0
2018-01-27T04:06:50.096Z,0
2018-01-27T04:07:30.650Z,0
2018-01-27T04:08:11.196Z,0
2018-01-27T04:08:51.740Z,0
2018-01-27T04:09:32.294Z,0
2018-01-27T04:10:12.824Z,0
2018-01-27T04:10:53.412Z,0
2018-01-27T04:11:33.902Z,0
2018-01-27T04:12:14.443Z,0
2018-01-27T04:12:55.033Z,0
2018-01-27T04:13:35.581Z,0
2018-01-27T04:14:16.125Z,0
2018-01-27T04:14:56.664Z,0
2018-01-27T04:15:37.234Z,0
2018-01-27T04:16:17.782Z,0
2018-01-27T04:16:58.442Z,0
2018-01-27T04:17:38.992Z,0
2018-01-27T04:18:19.484Z,0
2018-01-27T04:19:00.017Z,0
2018-01-27T04:19:40.568Z,0
2018-01-27T04:20:21.118Z,0
2018-01-27T04:21:01.627Z,0
2018-01-27T04:21:42.193Z,0
2018-01-27T04:22:22.751Z,0
2018-01-27T04:23:03.308Z,0
2018-01-27T04:23:43.837Z,0
2018-01-27T04:24:24.383Z,0
2018-01-27T04:25:04.967Z,0
2018-01-27T04:25:45.512Z,0
2018-01-27T04:26:26.039Z,0
2018-01-27T04:27:06.544Z,0
2018-01-27T04:27:47.120Z,0
2018-01-27T04:28:27.687Z,0
2018-01-27T04:29:08.228Z,0
2018-01-27T04:29:48.754Z,0
2018-01-27T04:30:29.296Z,0
2018-01-27T04:31:09.833Z,0
2018-01-27T04:31:50.392Z,0
2018-01-27T04:32:30.914Z,0
2018-01-27T04:33:11.480Z,0
2018-01-27T04:33:52.037Z,0
2018-01-27T04:34:32.599Z,0
2018-01-27T04:35:13.206Z,0
2018-01-27T04:35:53.715Z,0
2018-01-27T04:36:34.276Z,0
2018-01-27T04:37:14.784Z,0
2018-01-27T04:37:55.351Z,0
2018-01-27T04:38:35.891Z,0
2018-01-27T04:39:16.439Z,0
2018-01-27T04:39:56.980Z,0
2018-01-27T04:40:37.541Z,0
2018-01-27T04:41:18.043Z,0
2018-01-27T04:41:58.635Z,0
2018-01-27T04:42:39.239Z,0
2018-01-27T04:43:19.805Z,0
2018-01-27T04:44:00.338Z,0
2018-01-27T04:44:40.896Z,0
2018-01-27T04:45:21.458Z,0
2018-01-27T04:46:01.982Z,0
2018-01-27T04:46:42.523Z,0
2018-01-27T04:47:23.059Z,0
2018-01-27T04:48:03.609Z,0
2018-01-27T04:48:44.119Z,0
2018-01-27T04:49:24.650Z,0
2018-01-27T04:50:05.210Z,0
2018-01-27T04:50:45.760Z,0
2018-01-27T04:51:26.325Z,0
2018-01-27T04:52:06.861Z,0
2018-01-27T04:52:47.397Z,0
2018-01-27T04:53:27.948Z,0
2018-01-27T04:54:08.492Z,0
2018-01-27T04:54:49.051Z,0
2018-01-27T04:55:29.598Z,0
2018-01-27T04:56:10.163Z,0
2018-01-27T04:56:50.686Z,0
2018-01-27T04:57:31.237Z,0
2018-01-27T04:58:11.792Z,0
2018-01-27T04:58:52.336Z,0
2018-01-27T04:59:32.901Z,0
2018-01-27T05:00:13.426Z,0
2018-01-27T05:00:53.941Z,0
2018-01-27T05:01:34.484Z,0
2018-01-27T05:02:15.011Z,0
2018-01-27T05:02:55.567Z,0
2018-01-27T05:03:36.088Z,0
2018-01-27T05:04:16.634Z,0
2018-01-27T05:04:57.121Z,0
2018-01-27T05:05:37.661Z,0
2018-01-27T05:06:18.250Z,0
2018-01-27T05:06:58.787Z,0
2018-01-27T05:07:39.333Z,0
2018-01-27T05:08:19.891Z,0
2018-01-27T05:09:00.435Z,0
2018-01-27T05:09:40.985Z,0
2018-01-27T05:10:21.540Z,0
2018-01-27T05:11:02.098Z,0
2018-01-27T05:11:42.649Z,0
2018-01-27T05:12:23.192Z,0
2018-01-27T05:13:03.743Z,0
2018-01-27T05:13:44.298Z,0
2018-01-27T05:14:24.843Z,0
2018-01-27T05:15:05.387Z,0
2018-01-27T05:15:45.933Z,0
2018-01-27T05:16:26.478Z,0
2018-01-27T05:17:07.049Z,0
2018-01-27T05:17:47.563Z,0
2018-01-27T05:18:28.132Z,0
2018-01-27T05:19:08.691Z,0
2018-01-27T05:19:49.221Z,0
2018-01-27T05:20:29.777Z,0
2018-01-27T05:21:10.326Z,0
2018-01-27T05:21:50.892Z,0
2018-01-27T05:22:31.429Z,0
2018-01-27T05:23:12.005Z,0
2018-01-27T05:23:52.547Z,0
2018-01-27T05:24:33.100Z,0
2018-01-27T05:25:13.691Z,0
2018-01-27T05:25:54.224Z,0
2018-01-27T05:26:34.789Z,0
2018-01-27T05:27:15.322Z,0
2018-01-27T05:27:55.875Z,0
2018-01-27T05:28:36.477Z,0
2018-01-27T05:29:16.974Z,0
2018-01-27T05:29:57.517Z,0
2018-01-27T05:30:38.092Z,0
2018-01-27T05:31:18.589Z,0
2018-01-27T05:31:59.145Z,0
2018-01-27T05:32:39.648Z,0
2018-01-27T05:33:20.199Z,0
2018-01-27T05:34:00.755Z,0
2018-01-27T05:34:41.284Z,0
2018-01-27T05:35:21.845Z,0
2018-01-27T05:36:02.380Z,0
2018-01-27T05:36:42.939Z,0
2018-01-27T05:37:23.488Z,0
2018-01-27T05:38:04.018Z,0
2018-01-27T05:38:44.558Z,0
2018-01-27T05:39:25.149Z,0
2018-01-27T05:40:05.708Z,0
2018-01-27T05:40:46.241Z,0
2018-01-27T05:41:26.795Z,0
2018-01-27T05:42:07.338Z,0
2018-01-27T05:42:47.908Z,0
2018-01-27T05:43:28.438Z,0
2018-01-27T05:44:08.969Z,0
2018-01-27T05:44:49.504Z,0
2018-01-27T05:45:30.019Z,0
2018-01-27T05:46:10.570Z,0
2018-01-27T05:46:51.096Z,0
2018-01-27T05:47:31.626Z,0
2018-01-27T05:48:12.184Z,0
2018-01-27T05:48:52.712Z,0
2018-01-27T05:49:33.291Z,0
2018-01-27T05:50:13.840Z,0
2018-01-27T05:50:54.332Z,0
2018-01-27T05:51:34.878Z,0
2018-01-27T05:52:15.462Z,0
2018-01-27T05:52:56.001Z,0
2018-01-27T05:53:36.559Z,0
2018-01-27T05:54:17.134Z,0
2018-01-27T05:54:57.636Z,0
2018-01-27T05:55:38.153Z,0
2018-01-27T05:56:18.725Z,0
2018-01-27T05:56:59.219Z,0
2018-01-27T05:57:39.786Z,0
2018-01-27T05:58:20.303Z,0
2018-01-27T05:59:00.862Z,0
2018-01-27T05:59:41.466Z,0
2018-01-27T06:00:21.991Z,0
2018-01-27T06:01:02.543Z,0
2018-01-27T06:01:43.061Z,0
2018-01-27T06:02:23.604Z,0
2018-01-27T06:03:04.129Z,0
2018-01-27T06:03:44.687Z,0
2018-01-27T06:04:25.210Z,0
2018-01-27T06:05:05.752Z,0
2018-01-27T06:05:46.304Z,0
2018-01-27T06:06:26.836Z,0
2018-01-27T06:07:07.383Z,0
2018-01-27T06:07:47.923Z,0
2018-01-27T06:08:28.480Z,0
2018-01-27T06:09:09.001Z,0
2018-01-27T06:09:49.543Z,0
2018-01-27T06:10:30.073Z,0
2018-01-27T06:11:10.661Z,0
2018-01-27T06:11:51.161Z,0
2018-01-27T06:12:31.722Z,0
2018-01-27T06:13:12.248Z,0
2018-01-27T06:13:52.795Z,0
2018-01-27T06:14:33.333Z,0
2018-01-27T06:15:13.881Z,0
2018-01-27T06:15:54.446Z,0
2018-01-27T06:16:34.980Z,0
2018-01-27T06:17:15.544Z,0
2018-01-27T06:17:56.081Z,0
2018-01-27T06:18:36.612Z,0
2018-01-27T06:19:17.172Z,0
2018-01-27T06:19:57.732Z,0
2018-01-27T06:20:38.329Z,0
2018-01-27T06:21:18.765Z,0
2018-01-27T06:21:59.362Z,0
2018-01-27T06:22:39.933Z,0
2018-01-27T06:23:20.487Z,0
2018-01-27T06:24:00.977Z,0
2018-01-27T06:24:41.563Z,0
2018-01-27T06:25:22.072Z,0
2018-01-27T06:26:02.657Z,0
2018-01-27T06:26:43.192Z,0
2018-01-27T06:27:23.797Z,0
2018-01-27T06:28:04.336Z,0
2018-01-27T06:28:44.839Z,0
2018-01-27T06:29:25.384Z,0
2018-01-27T06:30:05.939Z,0
2018-01-27T06:30:46.480Z,0
2018-01-27T06:31:27.105Z,0
2018-01-27T06:32:07.609Z,0
2018-01-27T06:32:48.143Z,0
2018-01-27T06:33:28.722Z,0
2018-01-27T06:34:09.289Z,0
2018-01-27T06:34:49.798Z,0
2018-01-27T06:35:30.331Z,0
2018-01-27T06:36:10.864Z,0
2018-01-27T06:36:51.412Z,0
2018-01-27T06:37:31.939Z,0
2018-01-27T06:38:12.490Z,0
2018-01-27T06:38:53.051Z,0
2018-01-27T06:39:33.648Z,0
2018-01-27T06:40:14.127Z,0
2018-01-27T06:40:54.764Z,0
2018-01-27T06:41:35.284Z,0
2018-01-27T06:42:15.784Z,0
2018-01-27T06:42:56.346Z,0
2018-01-27T06:43:36.890Z,0
2018-01-27T06:44:17.422Z,0
2018-01-27T06:44:58.033Z,0
2018-01-27T06:45:38.558Z,0
2018-01-27T06:46:19.147Z,0
2018-01-27T06:46:59.676Z,0
2018-01-27T06:47:40.249Z,0
2018-01-27T06:48:20.774Z,0
2018-01-27T06:49:01.481Z,0
2018-01-27T06:49:42.073Z,0
2018-01-27T06:50:22.621Z,0
2018-01-27T06:51:03.164Z,0
2018-01-27T06:51:43.691Z,0
2018-01-27T06:52:24.251Z,0
2018-01-27T06:53:04.814Z,0
2018-01-27T06:53:45.347Z,0
2018-01-27T06:54:25.927Z,0
2018-01-27T06:55:06.443Z,0
2018-01-27T06:55:47.004Z,0
2018-01-27T06:56:27.551Z,0
2018-01-27T06:57:08.117Z,0
2018-01-27T06:57:48.615Z,0
2018-01-27T06:58:29.193Z,0
2018-01-27T06:59:09.780Z,0
2018-01-27T06:59:50.285Z,0
2018-01-27T07:00:30.843Z,0
2018-01-27T07:01:11.384Z,0
2018-01-27T07:01:51.901Z,0
2018-01-27T07:02:32.415Z,0
2018-01-27T07:03:12.974Z,0
2018-01-27T07:03:53.502Z,0
2018-01-27T07:04:34.074Z,0
2018-01-27T07:05:14.638Z,0
2018-01-27T07:05:55.198Z,0
2018-01-27T07:06:35.732Z,0
2018-01-27T07:07:16.292Z,0
2018-01-27T07:07:56.801Z,0
2018-01-27T07:08:37.268Z,0
2018-01-27T07:09:17.801Z,0
2018-01-27T07:09:58.338Z,0
2018-01-27T07:10:38.892Z,0
2018-01-27T07:11:19.406Z,0
2018-01-27T07:11:59.958Z,0
2018-01-27T07:12:40.554Z,0
2018-01-27T07:13:21.047Z,0
2018-01-27T07:14:01.614Z,0
2018-01-27T07:14:42.124Z,0
2018-01-27T07:15:22.686Z,0
2018-01-27T07:16:03.184Z,0
2018-01-27T07:16:43.717Z,0
2018-01-27T07:17:24.315Z,0
2018-01-27T07:18:04.936Z,0
2018-01-27T07:18:45.392Z,0
2018-01-27T07:19:25.946Z,0
2018-01-27T07:20:06.472Z,0
2018-01-27T07:20:47.004Z,0
2018-01-27T07:21:27.568Z,0
2018-01-27T07:22:08.106Z,0
2018-01-27T07:22:48.647Z,0
2018-01-27T07:23:29.186Z,5
2018-01-27T07:24:09.727Z,5
2018-01-27T07:24:50.275Z,5
2018-01-27T07:25:30.846Z,5
2018-01-27T07:26:11.393Z,5
2018-01-27T07:26:51.928Z,5
2018-01-27T07:27:32.464Z,5
2018-01-27T07:28:13.016Z,5
2018-01-27T07:28:53.567Z,5
2018-01-27T07:29:34.111Z,5
2018-01-27T07:30:14.662Z,5
2018-01-27T07:30:55.219Z,5
2018-01-27T07:31:35.792Z,5
2018-01-27T07:32:16.345Z,5
2018-01-27T07:32:56.877Z,5
2018-01-27T07:33:37.417Z,5
2018-01-27T07:34:18.007Z,5
2018-01-27T07:34:58.581Z,5
2018-01-27T07:35:39.122Z,5
2018-01-27T07:36:19.666Z,5
2018-01-27T07:37:00.274Z,5
2018-01-27T07:37:40.819Z,5
2018-01-27T07:38:21.363Z,5
2018-01-27T07:39:01.864Z,5
2018-01-27T07:39:42.434Z,5
2018-01-27T07:40:22.957Z,5
2018-01-27T07:41:03.492Z,5
2018-01-27T07:41:44.038Z,5
2018-01-27T07:42:24.604Z,5
2018-01-27T07:43:05.130Z,5
2018-01-27T07:43:45.676Z,5
2018-01-27T07:44:26.283Z,5
2018-01-27T07:45:06.843Z,5
2018-01-27T07:45:47.338Z,5
2018-01-27T07:46:27.893Z,5
2018-01-27T07:47:08.418Z,5
2018-01-27T07:47:48.926Z,5
2018-01-27T07:48:29.495Z,5
2018-01-27T07:49:10.016Z,5
2018-01-27T07:49:50.596Z,5
2018-01-27T07:50:31.101Z,5
2018-01-27T07:51:11.677Z,5
2018-01-27T07:51:52.219Z,5
2018-01-27T07:52:32.778Z,10
2018-01-27T07:53:13.313Z,10
2018-01-27T07:53:53.800Z,10
2018-01-27T07:54:34.398Z,10
2018-01-27T07:55:14.942Z,10
2018-01-27T07:55:55.450Z,10
2018-01-27T07:56:36.012Z,10
2018-01-27T07:57:16.561Z,10
2018-01-27T07:57:57.099Z,10
2018-01-27T07:58:37.647Z,10
2018-01-27T07:59:18.213Z,10
2018-01-27T07:59:58.766Z,10
2018-01-27T08:00:39.262Z,10
2018-01-27T08:01:19.807Z,10
2018-01-27T08:02:00.381Z,10
2018-01-27T08:02:40.929Z,10
2018-01-27T08:03:21.472Z,10
2018-01-27T08:04:01.983Z,10
2018-01-27T08:04:42.545Z,10
2018-01-27T08:05:23.054Z,15
2018-01-27T08:06:03.572Z,15
2018-01-27T08:06:44.110Z,15
2018-01-27T08:07:24.645Z,10
2018-01-27T08:08:05.186Z,10
2018-01-27T08:08:45.713Z,15
2018-01-27T08:09:26.283Z,15
2018-01-27T08:10:06.813Z,15
2018-01-27T08:10:47.335Z,10
2018-01-27T08:11:27.891Z,10
2018-01-27T08:12:08.454Z,10
2018-01-27T08:12:48.991Z,10
2018-01-27T08:13:29.560Z,10
2018-01-27T08:14:10.104Z,10
2018-01-27T08:14:50.633Z,10
2018-01-27T08:15:31.173Z,15
2018-01-27T08:16:11.730Z,15
2018-01-27T08:16:52.245Z,15
2018-01-27T08:17:32.819Z,20
2018-01-27T08:18:13.338Z,25
2018-01-27T08:18:53.904Z,25
2018-01-27T08:19:34.452Z,30
2018-01-27T08:20:14.990Z,25
2018-01-27T08:20:55.523Z,25
2018-01-27T08:21:36.082Z,25
2018-01-27T08:22:16.616Z,25
2018-01-27T08:22:57.149Z,25
2018-01-27T08:23:37.715Z,25
2018-01-27T08:24:18.286Z,30
2018-01-27T08:24:58.829Z,30
2018-01-27T08:25:39.392Z,30
2018-01-27T08:26:19.972Z,30
2018-01-27T08:27:00.504Z,30
2018-01-27T08:27:41.048Z,30
2018-01-27T08:28:32.695Z,30
2018-01-27T08:30:43.252Z,30
2018-01-27T08:31:23.823Z,30
2018-01-27T08:32:04.894Z,30
2018-01-27T08:32:45.455Z,30
2018-01-27T08:33:25.977Z,30
2018-01-27T08:34:06.720Z,30
2018-01-27T08:34:47.293Z,30
2018-01-27T08:35:27.785Z,30
2018-01-27T08:36:08.318Z,30
2018-01-27T08:36:48.890Z,30
2018-01-27T08:37:29.589Z,30
2018-01-27T08:38:10.156Z,30
2018-01-27T08:38:50.753Z,30
2018-01-27T08:39:31.284Z,30
2018-01-27T08:40:11.803Z,30
2018-01-27T08:40:52.372Z,30
2018-01-27T08:41:33.609Z,35
2018-01-27T08:42:14.215Z,35
2018-01-27T08:42:54.781Z,35
2018-01-27T08:43:36.985Z,30
2018-01-27T08:44:17.318Z,30
2018-01-27T08:44:57.863Z,30
2018-01-27T08:45:38.410Z,30
2018-01-27T08:46:21.259Z,35
2018-01-27T08:47:01.745Z,35
2018-01-27T08:47:42.300Z,35
2018-01-27T08:48:22.838Z,40
2018-01-27T08:49:03.421Z,40
2018-01-27T08:49:43.950Z,35
2018-01-27T08:50:24.471Z,35
2018-01-27T08:51:05.026Z,35
2018-01-27T08:51:45.590Z,35
2018-01-27T08:52:26.090Z,35
2018-01-27T08:53:06.647Z,30
2018-01-27T08:53:47.153Z,30
2018-01-27T08:54:27.796Z,30
2018-01-27T08:55:08.305Z,30
2018-01-27T08:55:48.811Z,25
2018-01-27T08:56:29.444Z,25
2018-01-27T08:57:09.977Z,25
2018-01-27T08:57:50.544Z,30
2018-01-27T08:58:31.110Z,30
2018-01-27T08:59:11.606Z,30
2018-01-27T08:59:52.750Z,30
2018-01-27T09:00:33.269Z,30
2018-01-27T09:01:13.900Z,30
2018-01-27T09:01:54.382Z,25
2018-01-27T09:02:35.006Z,20
2018-01-27T09:03:15.614Z,15
2018-01-27T09:03:56.140Z,15
2018-01-27T09:04:36.713Z,15
2018-01-27T09:05:17.308Z,15
2018-01-27T09:05:57.863Z,15
2018-01-27T09:06:38.393Z,20
2018-01-27T09:07:19.316Z,25
2018-01-27T09:07:59.881Z,30
2018-01-27T09:08:40.469Z,35
2018-01-27T09:09:20.959Z,35
2018-01-27T09:10:01.637Z,35
2018-01-27T09:10:42.225Z,35
2018-01-27T09:11:22.794Z,35
2018-01-27T09:12:03.314Z,40
2018-01-27T09:12:44.014Z,40
2018-01-27T09:13:24.419Z,35
2018-01-27T09:14:05.044Z,30
2018-01-27T09:14:45.622Z,30
2018-01-27T09:15:26.151Z,30
2018-01-27T09:16:06.695Z,30
2018-01-27T09:16:47.249Z,25
2018-01-27T09:17:27.790Z,25
2018-01-27T09:18:08.422Z,30
2018-01-27T09:18:48.985Z,30
2018-01-27T09:19:29.573Z,30
2018-01-27T09:20:10.106Z,30
2018-01-27T09:20:50.736Z,30
2018-01-27T09:21:31.322Z,25
2018-01-27T09:22:11.817Z,25
2018-01-27T09:22:52.394Z,25
2018-01-27T09:23:32.926Z,25
2018-01-27T09:24:13.474Z,25
2018-01-27T09:24:54.055Z,25
2018-01-27T09:25:34.579Z,25
2018-01-27T09:26:15.120Z,25
2018-01-27T09:26:55.895Z,25
2018-01-27T09:27:36.520Z,30
2018-01-27T09:28:17.090Z,30
2018-01-27T09:28:57.621Z,30
2018-01-27T09:29:38.146Z,35
2018-01-27T09:30:18.697Z,45
2018-01-27T09:30:59.198Z,50
2018-01-27T09:31:39.755Z,55
2018-01-27T09:32:20.480Z,55
2018-01-27T09:33:01.040Z,60
2018-01-27T09:33:41.608Z,60
2018-01-27T09:34:22.154Z,60
2018-01-27T09:35:02.703Z,60
2018-01-27T09:35:43.482Z,65
2018-01-27T09:36:23.946Z,60
2018-01-27T09:37:04.473Z,60
2018-01-27T09:37:45.056Z,60
2018-01-27T09:38:25.563Z,60
2018-01-27T09:39:06.196Z,60
2018-01-27T09:39:46.720Z,60
2018-01-27T09:40:27.289Z,60
2018-01-27T09:41:07.904Z,60
2018-01-27T09:41:48.445Z,60
2018-01-27T09:42:28.975Z,60
2018-01-27T09:43:09.562Z,60
2018-01-27T09:43:50.064Z,60
2018-01-27T09:44:30.847Z,65
2018-01-27T09:45:11.369Z,65
2018-01-27T09:45:51.922Z,60
2018-01-27T09:46:32.510Z,60
2018-01-27T09:47:13.059Z,60
2018-01-27T09:47:53.622Z,60
2018-01-27T09:48:34.213Z,60
2018-01-27T09:49:15.063Z,60
2018-01-27T09:49:55.607Z,60
2018-01-27T09:50:36.189Z,60
2018-01-27T09:51:16.810Z,60
2018-01-27T09:51:57.425Z,60
2018-01-27T09:52:37.967Z,60
2018-01-27T09:53:18.527Z,60
2018-01-27T09:53:59.094Z,60
2018-01-27T09:54:39.620Z,60
2018-01-27T09:55:20.201Z,60
2018-01-27T09:56:00.761Z,60
2018-01-27T09:56:41.360Z,55
2018-01-27T09:57:22.186Z,55